createdAt,value
2023-03-17T00:00:47.654Z,12.60
2023-03-17T00:03:27.142Z,12.80
2023-03-17T00:05:58.379Z,12.00
2023-03-17T00:08:31.303Z,12.70
2023-03-17T00:10:59.851Z,11.80
2023-03-17T00:13:31.005Z,12.90
2023-03-17T00:16:03.261Z,12.00
2023-03-17T00:18:33.586Z,11.80
2023-03-17T00:21:02.285Z,11.60
2023-03-17T00:23:30.856Z,12.30
2023-03-17T00:25:59.041Z,12.00
2023-03-17T00:28:28.234Z,11.60
2023-03-17T00:31:01.148Z,12.70
2023-03-17T00:33:34.608Z,11.50
2023-03-17T00:36:03.581Z,11.90
2023-03-17T00:38:32.914Z,11.60
2023-03-17T00:41:01.908Z,11.00
2023-03-17T00:43:30.774Z,11.50
2023-03-17T00:46:01.669Z,10.90
2023-03-17T00:48:30.314Z,11.10
2023-03-17T00:50:58.608Z,11.00
2023-03-17T00:53:31.052Z,11.40
2023-03-17T00:56:01.095Z,11.10
2023-03-17T00:58:34.293Z,11.60
2023-03-17T01:01:02.824Z,11.40
2023-03-17T01:03:33.168Z,11.70
2023-03-17T01:06:04.759Z,11.40
2023-03-17T01:08:32.912Z,11.40
2023-03-17T01:11:02.207Z,11.10
2023-03-17T01:13:30.591Z,11.20
2023-03-17T01:15:59.013Z,11.80
2023-03-17T01:18:27.748Z,10.90
2023-03-17T01:20:56.718Z,10.90
2023-03-17T01:23:25.434Z,11.60
2023-03-17T01:25:56.465Z,11.70
2023-03-17T01:28:25.675Z,12.00
2023-03-17T01:30:54.575Z,11.50
2023-03-17T01:33:23.051Z,11.30
2023-03-17T01:35:52.653Z,11.40
2023-03-17T01:38:21.139Z,11.70
2023-03-17T01:40:52.175Z,11.40
2023-03-17T01:43:24.869Z,11.40
2023-03-17T01:46:15.466Z,11.70
2023-03-17T01:48:59.924Z,11.50
2023-03-17T01:51:48.540Z,11.00
2023-03-17T01:54:45.415Z,11.80
2023-03-17T01:57:32.443Z,10.80
2023-03-17T02:00:08.944Z,11.40
2023-03-17T02:02:52.482Z,11.20
2023-03-17T02:05:26.670Z,11.60
2023-03-17T02:07:56.347Z,11.30
2023-03-17T02:10:30.844Z,11.00
2023-03-17T02:13:05.621Z,11.50
2023-03-17T02:15:49.419Z,11.10
2023-03-17T02:18:22.727Z,10.20
2023-03-17T02:21:14.547Z,11.70
2023-03-17T02:23:43.676Z,10.60
2023-03-17T02:26:12.847Z,10.80
2023-03-17T02:28:46.352Z,10.30
2023-03-17T02:31:15.773Z,10.70
2023-03-17T02:33:46.201Z,10.30
2023-03-17T02:36:15.064Z,11.00
2023-03-17T02:38:45.318Z,10.10
2023-03-17T02:41:13.592Z,9.40
2023-03-17T02:43:42.487Z,10.40
2023-03-17T02:46:11.506Z,10.40
2023-03-17T02:48:40.676Z,10.00
2023-03-17T02:51:09.652Z,9.50
2023-03-17T02:53:38.166Z,9.60
2023-03-17T02:56:08.027Z,9.40
2023-03-17T02:58:36.759Z,9.50
2023-03-17T03:01:05.633Z,9.20
2023-03-17T03:03:34.110Z,9.30
2023-03-17T03:06:03.667Z,8.90
2023-03-17T03:08:32.449Z,9.20
2023-03-17T03:11:02.764Z,8.80
2023-03-17T03:13:31.679Z,8.80
2023-03-17T03:16:00.564Z,8.70
2023-03-17T03:18:29.064Z,8.70
2023-03-17T03:20:57.297Z,8.30
2023-03-17T03:23:25.785Z,8.80
2023-03-17T03:25:54.412Z,7.80
2023-03-17T03:28:23.149Z,8.30
2023-03-17T03:30:51.997Z,8.40
2023-03-17T03:33:21.127Z,8.50
2023-03-17T03:35:49.959Z,8.20
2023-03-17T03:38:18.509Z,8.70
2023-03-17T03:40:47.387Z,7.70
2023-03-17T03:43:23.495Z,8.30
2023-03-17T03:45:54.631Z,8.30
2023-03-17T03:48:23.280Z,8.20
2023-03-17T03:50:57.760Z,7.90
2023-03-17T03:53:26.383Z,8.40
2023-03-17T03:55:55.380Z,7.70
2023-03-17T03:58:23.873Z,7.70
2023-03-17T04:00:51.939Z,8.10
2023-03-17T04:03:19.901Z,8.50
2023-03-17T04:05:47.971Z,8.50
2023-03-17T04:08:16.659Z,8.10
2023-03-17T04:10:44.727Z,7.70
2023-03-17T04:13:14.236Z,8.30
2023-03-17T04:15:42.746Z,8.00
2023-03-17T04:18:11.710Z,7.90
2023-03-17T04:20:39.676Z,8.10
2023-03-17T04:23:08.088Z,8.00
2023-03-17T04:25:36.854Z,8.30
2023-03-17T04:28:05.567Z,7.30
2023-03-17T04:30:33.714Z,7.60
2023-03-17T04:33:01.844Z,8.00
2023-03-17T04:35:30.836Z,8.10
2023-03-17T04:37:58.947Z,7.70
2023-03-17T04:40:27.125Z,7.60
2023-03-17T04:42:55.092Z,8.00
2023-03-17T04:45:23.489Z,8.20
2023-03-17T04:47:53.813Z,8.10
2023-03-17T04:50:22.114Z,7.40
2023-03-17T04:52:50.340Z,8.30
2023-03-17T04:55:18.542Z,8.50
2023-03-17T04:57:46.678Z,8.20
2023-03-17T05:00:15.759Z,7.20
2023-03-17T05:02:44.388Z,7.20
2023-03-17T05:05:13.167Z,7.40
2023-03-17T05:07:41.854Z,7.30
2023-03-17T05:10:12.552Z,7.90
2023-03-17T05:12:40.776Z,7.70
2023-03-17T05:15:10.372Z,7.30
2023-03-17T05:17:38.559Z,7.40
2023-03-17T05:20:08.734Z,7.50
2023-03-17T05:22:37.875Z,7.00
2023-03-17T05:25:06.864Z,6.90
2023-03-17T05:27:34.805Z,7.00
2023-03-17T05:30:03.718Z,7.10
2023-03-17T05:32:32.267Z,7.20
2023-03-17T05:35:00.449Z,6.90
2023-03-17T05:37:28.542Z,7.10
2023-03-17T05:39:56.513Z,7.30
2023-03-17T05:42:24.482Z,7.20
2023-03-17T05:44:52.765Z,7.50
2023-03-17T05:47:21.248Z,7.20
2023-03-17T05:49:49.364Z,7.20
2023-03-17T05:52:17.391Z,7.30
2023-03-17T05:54:48.016Z,7.00
2023-03-17T05:57:16.663Z,7.60
2023-03-17T05:59:46.005Z,7.40
2023-03-17T06:02:14.728Z,7.10
2023-03-17T06:04:43.477Z,6.90
2023-03-17T06:07:12.226Z,7.50
2023-03-17T06:09:40.345Z,7.20
2023-03-17T06:12:09.596Z,6.90
2023-03-17T06:14:37.633Z,7.20
2023-03-17T06:17:06.513Z,6.90
2023-03-17T06:19:34.572Z,6.90
2023-03-17T06:22:02.506Z,7.00
2023-03-17T06:24:30.718Z,7.50
2023-03-17T06:26:58.789Z,7.20
2023-03-17T06:29:26.752Z,6.60
2023-03-17T06:31:54.919Z,6.90
2023-03-17T06:34:24.674Z,7.20
2023-03-17T06:36:52.846Z,6.70
2023-03-17T06:39:21.304Z,7.40
2023-03-17T06:41:49.696Z,6.80
2023-03-17T06:44:18.230Z,7.30
2023-03-17T06:46:46.911Z,6.90
2023-03-17T06:49:15.021Z,7.10
2023-03-17T06:51:43.112Z,7.20
2023-03-17T06:54:11.678Z,7.00
2023-03-17T06:56:39.751Z,6.60
2023-03-17T06:59:07.714Z,7.40
2023-03-17T07:01:35.760Z,8.00
2023-03-17T07:04:04.070Z,8.80
2023-03-17T07:06:32.448Z,9.10
2023-03-17T07:09:02.273Z,9.40
2023-03-17T07:11:30.953Z,9.60
2023-03-17T07:13:59.788Z,10.20
2023-03-17T07:16:27.866Z,9.60
2023-03-17T07:18:56.090Z,9.70
2023-03-17T07:21:24.360Z,9.70
2023-03-17T07:23:52.481Z,9.70
2023-03-17T07:26:20.914Z,9.70
2023-03-17T07:28:49.292Z,9.70
2023-03-17T07:31:17.289Z,9.30
2023-03-17T07:33:45.451Z,8.90
2023-03-17T07:36:13.643Z,9.80
2023-03-17T07:38:42.076Z,9.20
2023-03-17T07:41:11.123Z,9.10
2023-03-17T07:43:39.666Z,9.90
2023-03-17T07:46:08.821Z,9.90
2023-03-17T07:48:41.120Z,9.50
2023-03-17T07:51:19.038Z,9.10
2023-03-17T07:53:50.206Z,8.70
2023-03-17T07:56:18.355Z,9.00
2023-03-17T07:58:46.434Z,8.90
2023-03-17T08:01:15.536Z,9.50
2023-03-17T08:03:43.685Z,9.30
2023-03-17T08:06:12.290Z,8.70
2023-03-17T08:08:40.973Z,9.60
2023-03-17T08:11:10.177Z,8.80
2023-03-17T08:13:38.546Z,9.40
2023-03-17T08:16:07.488Z,9.10
2023-03-17T08:18:36.742Z,9.10
2023-03-17T08:21:06.553Z,9.40
2023-03-17T08:23:34.582Z,8.60
2023-03-17T08:26:04.825Z,8.50
2023-03-17T08:28:32.948Z,8.60
2023-03-17T08:31:18.276Z,8.40
2023-03-17T08:33:49.941Z,9.10
2023-03-17T08:36:20.802Z,8.80
2023-03-17T08:38:49.062Z,8.30
2023-03-17T08:41:22.928Z,7.70
2023-03-17T08:43:51.909Z,9.10
2023-03-17T08:46:22.087Z,8.40
2023-03-17T08:48:54.105Z,8.40
2023-03-17T08:51:26.861Z,8.00
2023-03-17T08:53:56.684Z,7.80
2023-03-17T08:56:25.785Z,8.00
2023-03-17T08:58:54.736Z,8.20
2023-03-17T09:01:24.942Z,8.10
2023-03-17T09:03:55.284Z,7.50
2023-03-17T09:06:24.684Z,8.30
2023-03-17T09:08:55.755Z,7.70
2023-03-17T09:11:30.041Z,7.90
2023-03-17T09:13:58.628Z,8.20
2023-03-17T09:16:28.841Z,7.80
2023-03-17T09:18:57.950Z,7.60
2023-03-17T09:21:26.344Z,7.80
2023-03-17T09:23:54.912Z,7.00
2023-03-17T09:26:25.397Z,7.80
2023-03-17T09:28:53.721Z,7.10
2023-03-17T09:31:22.108Z,7.50
2023-03-17T09:33:52.694Z,7.30
2023-03-17T09:36:21.319Z,7.80
2023-03-17T09:38:49.786Z,7.00
2023-03-17T09:41:24.119Z,7.00
2023-03-17T09:44:04.712Z,7.10
2023-03-17T09:46:52.339Z,7.10
2023-03-17T09:49:50.490Z,7.50
2023-03-17T09:52:30.727Z,6.90
2023-03-17T09:55:01.518Z,7.40
2023-03-17T09:57:40.534Z,6.90
2023-03-17T10:00:26.842Z,7.00
2023-03-17T10:02:59.173Z,6.40
2023-03-17T10:05:36.281Z,7.70
2023-03-17T10:08:30.144Z,7.10
2023-03-17T10:11:11.150Z,6.40
2023-03-17T10:14:04.384Z,6.80
2023-03-17T10:17:11.766Z,6.50
2023-03-17T10:19:54.791Z,6.40
2023-03-17T10:22:35.840Z,6.60
2023-03-17T10:25:21.676Z,6.30
2023-03-17T10:28:30.890Z,6.40
2023-03-17T10:31:16.737Z,6.10
2023-03-17T10:33:52.429Z,5.70
2023-03-17T10:36:40.206Z,5.90
2023-03-17T10:39:15.205Z,6.10
2023-03-17T10:42:00.510Z,6.40
2023-03-17T10:44:39.910Z,6.20
2023-03-17T10:47:31.829Z,6.10
2023-03-17T10:50:23.309Z,5.70
2023-03-17T10:53:28.927Z,5.80
2023-03-17T10:56:30.342Z,5.60
2023-03-17T10:59:19.520Z,5.40
2023-03-17T11:01:56.516Z,6.20
2023-03-17T11:04:44.095Z,5.50
2023-03-17T11:07:27.155Z,5.80
2023-03-17T11:10:04.066Z,5.70
2023-03-17T11:12:40.915Z,5.70
2023-03-17T11:15:17.903Z,5.40
2023-03-17T11:17:58.881Z,5.50
2023-03-17T11:20:54.350Z,5.10
2023-03-17T11:23:34.157Z,5.40
2023-03-17T11:26:08.068Z,5.30
2023-03-17T11:28:43.577Z,5.50
2023-03-17T11:31:34.199Z,5.50
2023-03-17T11:34:18.135Z,5.40
2023-03-17T11:36:58.684Z,5.20
2023-03-17T11:39:58.296Z,5.30
2023-03-17T11:42:43.195Z,5.00
2023-03-17T11:45:39.675Z,5.20
2023-03-17T11:48:21.533Z,5.20
2023-03-17T11:50:59.907Z,5.30
2023-03-17T11:53:57.847Z,5.30
2023-03-17T11:56:38.693Z,5.30
2023-03-17T11:59:23.958Z,4.90
2023-03-17T12:02:05.022Z,5.00
2023-03-17T12:04:50.978Z,5.10
2023-03-17T12:07:33.684Z,5.20
2023-03-17T12:10:15.957Z,5.20
2023-03-17T12:13:05.111Z,4.60
2023-03-17T12:15:47.864Z,4.80
2023-03-17T12:18:30.941Z,4.80
2023-03-17T12:21:20.925Z,4.80
2023-03-17T12:24:07.947Z,4.80
2023-03-17T12:27:03.727Z,5.30
2023-03-17T12:29:58.388Z,4.60
2023-03-17T12:32:44.343Z,30.10
2023-03-17T12:35:17.236Z,57.40
2023-03-17T12:37:46.946Z,66.30
2023-03-17T12:40:23.645Z,39.30
2023-03-17T12:43:15.446Z,31.40
2023-03-17T12:46:08.900Z,24.40
2023-03-17T12:49:18.253Z,23.10
2023-03-17T12:52:14.552Z,18.30
2023-03-17T12:54:49.448Z,16.50
2023-03-17T13:00:31.832Z,13.40
2023-03-17T13:03:23.950Z,11.60
2023-03-17T13:06:02.398Z,10.60
2023-03-17T13:08:36.249Z,10.20
2023-03-17T13:11:46.065Z,10.30
2023-03-17T13:14:47.814Z,9.30
2023-03-17T13:17:19.983Z,9.20
2023-03-17T13:20:08.543Z,9.50
2023-03-17T13:22:43.043Z,9.10
2023-03-17T13:25:35.550Z,8.70
2023-03-17T13:28:12.914Z,8.40
2023-03-17T13:30:53.158Z,8.50
2023-03-17T13:33:31.252Z,7.70
2023-03-17T13:36:19.609Z,8.50
2023-03-17T13:39:24.912Z,7.70
2023-03-17T13:42:37.683Z,7.60
2023-03-17T13:45:39.602Z,7.60
2023-03-17T13:48:37.492Z,7.10
2023-03-17T13:51:13.864Z,7.40
2023-03-17T13:54:22.498Z,5.60
2023-03-17T13:56:51.440Z,6.10
2023-03-17T13:59:36.156Z,6.30
2023-03-17T14:02:18.665Z,6.60
2023-03-17T14:05:01.911Z,6.30
2023-03-17T14:07:54.541Z,5.70
2023-03-17T14:10:29.109Z,6.00
2023-03-17T14:16:29.846Z,5.80
2023-03-17T14:19:11.411Z,5.70
2023-03-17T14:21:39.688Z,5.60
2023-03-17T14:24:21.468Z,4.50
2023-03-17T14:26:51.778Z,5.20
2023-03-17T14:29:32.201Z,5.30
2023-03-17T14:32:15.924Z,5.20
2023-03-17T14:34:55.684Z,4.80
2023-03-17T14:37:25.522Z,4.90
2023-03-17T14:39:58.758Z,4.90
2023-03-17T14:42:32.466Z,4.60
2023-03-17T14:45:04.722Z,4.40
2023-03-17T14:47:42.927Z,4.70
2023-03-17T14:50:32.656Z,4.40
2023-03-17T14:53:01.922Z,4.00
2023-03-17T14:55:40.684Z,4.00
2023-03-17T14:58:25.806Z,3.70
2023-03-17T15:01:06.897Z,3.90
2023-03-17T15:03:41.967Z,4.00
2023-03-17T15:06:35.167Z,3.90
2023-03-17T15:09:20.893Z,3.70
2023-03-17T15:11:49.564Z,4.00
2023-03-17T15:14:38.994Z,4.00
2023-03-17T15:17:18.679Z,4.00
2023-03-17T15:19:55.100Z,3.70
2023-03-17T15:22:33.166Z,3.50
2023-03-17T15:25:23.275Z,3.60
2023-03-17T15:27:52.621Z,3.20
2023-03-17T15:30:21.676Z,3.20
2023-03-17T15:33:00.305Z,3.60
2023-03-17T15:35:29.562Z,3.50
2023-03-17T15:37:57.857Z,3.60
2023-03-17T15:40:26.321Z,3.30
2023-03-17T15:42:57.304Z,3.40
2023-03-17T15:45:25.742Z,3.20
2023-03-17T15:47:55.515Z,3.30
2023-03-17T15:50:30.120Z,3.20
2023-03-17T15:52:58.846Z,3.20
2023-03-17T15:55:30.116Z,3.20
2023-03-17T15:57:59.099Z,3.50
2023-03-17T16:00:30.283Z,2.90
2023-03-17T16:03:04.509Z,3.20
2023-03-17T16:05:35.191Z,3.00
2023-03-17T16:08:04.709Z,3.40
2023-03-17T16:10:33.766Z,3.40
2023-03-17T16:13:02.189Z,2.90
2023-03-17T16:15:36.098Z,3.00
2023-03-17T16:18:10.449Z,3.30
2023-03-17T16:20:42.188Z,3.30
2023-03-17T16:23:27.846Z,3.20
2023-03-17T16:26:11.831Z,3.10
2023-03-17T16:28:44.772Z,3.60
2023-03-17T16:31:24.979Z,3.20
2023-03-17T16:33:54.645Z,3.10
2023-03-17T16:36:24.971Z,3.30
2023-03-17T16:38:53.470Z,2.80
2023-03-17T16:41:26.240Z,3.30
2023-03-17T16:44:01.762Z,3.00
2023-03-17T16:46:35.427Z,3.10
2023-03-17T16:49:05.648Z,3.10
2023-03-17T16:51:33.677Z,3.10
2023-03-17T16:54:01.756Z,2.90
2023-03-17T16:56:31.755Z,3.00
2023-03-17T16:59:01.580Z,3.20
2023-03-17T17:01:30.725Z,3.20
2023-03-17T17:04:01.918Z,3.10
2023-03-17T17:06:29.995Z,3.60
2023-03-17T17:08:58.070Z,3.00
2023-03-17T17:11:26.241Z,3.20
2023-03-17T17:13:54.311Z,3.00
2023-03-17T17:16:25.379Z,3.00
2023-03-17T17:18:54.143Z,3.40
2023-03-17T17:21:22.440Z,3.40
2023-03-17T17:23:53.035Z,3.00
2023-03-17T17:26:22.635Z,3.30
2023-03-17T17:28:51.047Z,3.30
2023-03-17T17:31:19.452Z,3.20
2023-03-17T17:33:47.528Z,3.10
2023-03-17T17:36:17.992Z,3.10
2023-03-17T17:38:47.320Z,3.50
2023-03-17T17:41:17.234Z,3.10
2023-03-17T17:43:46.408Z,3.20
2023-03-17T17:46:21.626Z,3.10
2023-03-17T17:48:50.682Z,2.90
2023-03-17T17:51:18.724Z,3.10
2023-03-17T17:53:46.982Z,2.90
2023-03-17T17:56:17.767Z,3.10
2023-03-17T17:58:46.656Z,2.90
2023-03-17T18:01:19.877Z,3.10
2023-03-17T18:03:49.284Z,3.30
2023-03-17T18:06:18.136Z,2.90
2023-03-17T18:08:46.607Z,3.00
2023-03-17T18:11:14.681Z,3.10
2023-03-17T18:13:42.889Z,3.10
2023-03-17T18:16:16.358Z,3.30
2023-03-17T18:18:46.314Z,3.20
2023-03-17T18:21:14.354Z,3.20
2023-03-17T18:23:47.200Z,3.30
2023-03-17T18:26:18.102Z,3.60
2023-03-17T18:28:47.997Z,3.20
2023-03-17T18:31:27.692Z,3.10
2023-03-17T18:34:06.456Z,3.00
2023-03-17T18:36:36.464Z,3.50
2023-03-17T18:39:05.036Z,3.40
2023-03-17T18:41:36.268Z,3.30
2023-03-17T18:44:04.563Z,3.80
2023-03-17T18:46:32.983Z,3.70
2023-03-17T18:49:01.222Z,3.80
2023-03-17T18:51:29.307Z,3.50
2023-03-17T18:53:58.493Z,3.60
2023-03-17T18:56:29.321Z,4.00
2023-03-17T18:58:59.225Z,3.70
2023-03-17T19:01:27.971Z,3.80
2023-03-17T19:03:56.309Z,3.80
2023-03-17T19:06:24.795Z,4.00
2023-03-17T19:08:53.385Z,4.10
2023-03-17T19:11:22.426Z,4.10
2023-03-17T19:13:53.927Z,4.00
2023-03-17T19:16:29.133Z,4.00
2023-03-17T19:18:59.519Z,3.80
2023-03-17T19:21:30.412Z,4.30
2023-03-17T19:24:01.939Z,4.10
2023-03-17T19:26:31.354Z,4.00
2023-03-17T19:29:01.622Z,4.00
2023-03-17T19:31:30.180Z,4.10
2023-03-17T19:33:58.870Z,3.90
2023-03-17T19:36:27.249Z,3.50
2023-03-17T19:38:56.659Z,4.00
2023-03-17T19:41:25.034Z,4.10
2023-03-17T19:43:55.478Z,4.00
2023-03-17T19:46:24.434Z,4.10
2023-03-17T19:48:56.798Z,4.10
2023-03-17T19:51:27.369Z,4.00
2023-03-17T19:53:56.765Z,4.30
2023-03-17T19:56:28.192Z,3.80
2023-03-17T19:58:57.531Z,3.90
2023-03-17T20:01:32.295Z,4.20
2023-03-17T20:04:01.499Z,4.20
2023-03-17T20:06:34.988Z,3.90
2023-03-17T20:09:08.961Z,3.70
2023-03-17T20:11:37.851Z,4.20
2023-03-17T20:14:08.249Z,4.10
2023-03-17T20:16:42.796Z,4.10
2023-03-17T20:19:13.227Z,4.10
2023-03-17T20:21:47.849Z,4.10
2023-03-17T20:24:17.746Z,4.40
2023-03-17T20:26:49.979Z,4.00
2023-03-17T20:29:26.519Z,4.40
2023-03-17T20:32:02.387Z,4.50
2023-03-17T20:34:35.975Z,4.10
2023-03-17T20:37:10.389Z,4.50
2023-03-17T20:39:42.884Z,4.60
2023-03-17T20:42:14.898Z,4.10
2023-03-17T20:44:44.946Z,4.20
2023-03-17T20:47:17.816Z,4.70
2023-03-17T20:49:49.398Z,4.30
2023-03-17T20:52:20.216Z,4.50
2023-03-17T20:54:53.935Z,4.30
2023-03-17T20:57:25.464Z,4.90
2023-03-17T20:59:58.312Z,4.60
2023-03-17T21:02:31.248Z,4.80
2023-03-17T21:05:00.455Z,4.50
2023-03-17T21:07:31.492Z,4.30
2023-03-17T21:10:16.340Z,4.50
2023-03-17T21:12:50.093Z,4.40
2023-03-17T21:15:23.137Z,4.60
2023-03-17T21:17:51.931Z,11.40
2023-03-17T21:20:22.368Z,7.00
2023-03-17T21:22:51.856Z,5.30
2023-03-17T21:25:21.918Z,4.70
2023-03-17T21:27:52.947Z,4.60
2023-03-17T21:30:24.213Z,4.40
2023-03-17T21:33:01.076Z,4.50
2023-03-17T21:35:36.714Z,4.70
2023-03-17T21:38:05.510Z,4.50
2023-03-17T21:40:34.575Z,4.60
2023-03-17T21:43:04.785Z,4.60
2023-03-17T21:45:33.631Z,4.60
2023-03-17T21:48:08.130Z,4.70
2023-03-17T21:50:37.611Z,4.50
2023-03-17T21:53:09.369Z,4.30
2023-03-17T21:55:38.057Z,4.00
2023-03-17T21:58:08.893Z,4.80
2023-03-17T22:00:45.014Z,4.70
2023-03-17T22:03:16.388Z,4.70
2023-03-17T22:05:47.347Z,4.10
2023-03-17T22:08:17.158Z,4.60
2023-03-17T22:10:45.532Z,4.90
2023-03-17T22:13:13.934Z,4.80
2023-03-17T22:15:43.052Z,4.60
2023-03-17T22:18:11.905Z,4.60
2023-03-17T22:20:41.419Z,4.60
2023-03-17T22:23:09.486Z,4.90
2023-03-17T22:25:37.981Z,4.90
2023-03-17T22:28:06.983Z,4.30
2023-03-17T22:30:39.582Z,4.40
2023-03-17T22:33:08.906Z,4.60
2023-03-17T22:35:38.326Z,4.70
2023-03-17T22:38:09.069Z,4.50
2023-03-17T22:40:37.366Z,4.40
2023-03-17T22:43:06.459Z,4.70
2023-03-17T22:45:34.578Z,4.90
2023-03-17T22:48:02.702Z,4.70
2023-03-17T22:50:31.382Z,4.60
2023-03-17T22:52:59.719Z,4.50
2023-03-17T22:55:27.735Z,4.20
2023-03-17T22:57:55.802Z,4.60
2023-03-17T23:00:25.820Z,4.20
2023-03-17T23:02:53.996Z,4.20
2023-03-17T23:05:22.496Z,4.40
2023-03-17T23:07:51.924Z,4.40
2023-03-17T23:10:23.336Z,4.20
2023-03-17T23:12:52.942Z,4.30
2023-03-17T23:15:21.982Z,4.20
2023-03-17T23:17:52.108Z,4.50
2023-03-17T23:20:20.395Z,4.20
2023-03-17T23:22:48.507Z,4.00
2023-03-17T23:25:18.263Z,4.00
2023-03-17T23:27:47.215Z,4.00
2023-03-17T23:30:17.913Z,4.00
2023-03-17T23:32:46.851Z,3.80
2023-03-17T23:35:15.536Z,4.00
2023-03-17T23:37:43.903Z,3.60
2023-03-17T23:40:17.508Z,3.50
2023-03-17T23:42:49.199Z,3.70
2023-03-17T23:45:18.769Z,3.50
2023-03-17T23:47:48.073Z,3.40
2023-03-17T23:50:16.442Z,3.20
2023-03-17T23:52:45.398Z,3.90
2023-03-17T23:55:17.832Z,3.50
2023-03-17T23:57:46.713Z,3.70
